createdAt,value
2019-04-10T00:00:48.228Z,12.30
2019-04-10T00:03:27.906Z,12.30
2019-04-10T00:05:50.051Z,12.30
2019-04-10T00:08:19.922Z,12.20
2019-04-10T00:10:49.742Z,12.20
2019-04-10T00:13:20.561Z,12.20
2019-04-10T00:15:50.789Z,12.20
2019-04-10T00:18:22.048Z,12.20
2019-04-10T00:20:53.117Z,12.20
2019-04-10T00:23:23.311Z,12.10
2019-04-10T00:25:53.090Z,12.10
2019-04-10T00:28:23.392Z,12.10
2019-04-10T00:30:53.636Z,12.10
2019-04-10T00:33:23.470Z,12.00
2019-04-10T00:35:54.007Z,12.00
2019-04-10T00:38:24.165Z,12.00
2019-04-10T00:40:53.871Z,12.00
2019-04-10T00:43:24.609Z,11.90
2019-04-10T00:45:54.411Z,11.90
2019-04-10T00:48:24.209Z,11.90
2019-04-10T00:50:54.911Z,11.80
2019-04-10T00:53:25.311Z,11.70
2019-04-10T00:55:55.154Z,11.70
2019-04-10T00:58:25.871Z,11.70
2019-04-10T01:00:55.775Z,11.70
2019-04-10T01:03:44.158Z,11.70
2019-04-10T01:06:15.861Z,11.70
2019-04-10T01:08:45.939Z,11.70
2019-04-10T01:11:16.995Z,11.70
2019-04-10T01:13:47.465Z,11.60
2019-04-10T01:16:17.915Z,11.60
2019-04-10T01:18:47.894Z,11.60
2019-04-10T01:21:18.014Z,11.50
2019-04-10T01:23:49.029Z,11.50
2019-04-10T01:26:19.178Z,11.50
2019-04-10T01:28:49.553Z,11.40
2019-04-10T01:31:20.026Z,11.40
2019-04-10T01:33:50.247Z,11.30
2019-04-10T01:36:20.731Z,11.30
2019-04-10T01:38:51.748Z,11.30
2019-04-10T01:41:21.680Z,11.20
2019-04-10T01:43:51.722Z,11.20
2019-04-10T01:46:22.312Z,11.20
2019-04-10T01:48:53.354Z,11.20
2019-04-10T01:51:23.454Z,11.20
2019-04-10T01:53:54.479Z,11.20
2019-04-10T01:56:29.463Z,11.10
2019-04-10T01:58:55.956Z,11.10
2019-04-10T02:01:30.597Z,11.10
2019-04-10T02:04:00.653Z,11.10
2019-04-10T02:06:31.512Z,11.10
2019-04-10T02:09:02.543Z,11.10
2019-04-10T02:11:32.759Z,11.10
2019-04-10T02:14:03.586Z,11.10
2019-04-10T02:16:34.670Z,11.10
2019-04-10T02:19:05.929Z,11.10
2019-04-10T02:21:36.057Z,11.00
2019-04-10T02:24:05.753Z,11.00
2019-04-10T02:26:35.992Z,11.00
2019-04-10T02:29:07.083Z,11.00
2019-04-10T02:31:38.890Z,10.90
2019-04-10T02:34:09.455Z,10.90
2019-04-10T02:36:42.412Z,10.90
2019-04-10T02:39:24.398Z,10.90
2019-04-10T02:41:44.003Z,10.80
2019-04-10T02:44:16.221Z,10.80
2019-04-10T02:46:47.351Z,10.80
2019-04-10T02:49:18.466Z,10.70
2019-04-10T02:51:49.855Z,10.70
2019-04-10T02:54:21.297Z,10.60
2019-04-10T02:56:52.680Z,10.50
2019-04-10T02:59:23.365Z,10.50
2019-04-10T03:01:53.700Z,10.50
2019-04-10T03:04:24.426Z,10.50
2019-04-10T03:06:55.486Z,10.50
2019-04-10T03:09:36.955Z,10.40
2019-04-10T03:11:57.452Z,10.40
2019-04-10T03:14:28.461Z,10.40
2019-04-10T03:16:59.699Z,10.40
2019-04-10T03:19:29.783Z,10.40
2019-04-10T03:21:59.726Z,10.30
2019-04-10T03:24:29.562Z,10.40
2019-04-10T03:26:59.467Z,10.30
2019-04-10T03:29:29.614Z,10.40
2019-04-10T03:32:19.353Z,10.30
2019-04-10T03:34:53.206Z,10.40
2019-04-10T03:37:22.999Z,10.40
2019-04-10T03:39:53.216Z,10.40
2019-04-10T03:42:23.358Z,10.30
2019-04-10T03:44:53.190Z,10.30
2019-04-10T03:47:23.030Z,10.30
2019-04-10T03:49:53.994Z,10.30
2019-04-10T03:52:25.258Z,10.30
2019-04-10T03:54:56.512Z,10.30
2019-04-10T03:57:26.798Z,10.30
2019-04-10T03:59:56.746Z,10.30
2019-04-10T04:02:27.422Z,10.30
2019-04-10T04:04:58.847Z,10.30
2019-04-10T04:07:28.733Z,10.30
2019-04-10T04:09:58.559Z,10.20
2019-04-10T04:12:28.787Z,10.20
2019-04-10T04:14:59.190Z,10.20
2019-04-10T04:17:30.364Z,10.30
2019-04-10T04:20:00.395Z,10.30
2019-04-10T04:22:30.595Z,10.30
2019-04-10T04:25:00.485Z,10.30
2019-04-10T04:27:30.354Z,10.30
2019-04-10T04:30:00.289Z,10.20
2019-04-10T04:32:31.397Z,10.20
2019-04-10T04:35:02.389Z,10.20
2019-04-10T04:37:33.582Z,10.10
2019-04-10T04:40:03.833Z,10.10
2019-04-10T04:42:33.711Z,10.10
2019-04-10T04:45:03.694Z,10.10
2019-04-10T04:47:33.554Z,10.10
2019-04-10T04:50:03.645Z,10.20
2019-04-10T04:52:33.634Z,10.20
2019-04-10T04:55:03.958Z,10.30
2019-04-10T04:57:35.573Z,10.30
2019-04-10T05:00:07.466Z,10.40
2019-04-10T05:02:37.907Z,10.40
2019-04-10T05:05:08.774Z,10.40
2019-04-10T05:07:39.705Z,10.30
2019-04-10T05:10:11.101Z,10.30
2019-04-10T05:12:42.431Z,10.30
2019-04-10T05:15:13.202Z,10.30
2019-04-10T05:17:43.037Z,10.30
2019-04-10T05:20:12.971Z,10.40
2019-04-10T05:22:43.645Z,10.40
2019-04-10T05:25:13.834Z,10.40
2019-04-10T05:27:43.851Z,10.50
2019-04-10T05:30:14.873Z,10.50
2019-04-10T05:32:44.917Z,10.50
2019-04-10T05:35:15.559Z,10.50
2019-04-10T05:37:45.728Z,10.60
2019-04-10T05:40:15.644Z,10.60
2019-04-10T05:42:45.507Z,10.60
2019-04-10T05:45:15.427Z,10.50
2019-04-10T05:47:46.451Z,10.40
2019-04-10T05:50:17.723Z,10.40
2019-04-10T05:52:47.539Z,10.50
2019-04-10T05:55:17.331Z,10.60
2019-04-10T05:57:47.109Z,10.60
2019-04-10T06:00:18.874Z,10.70
2019-04-10T06:02:50.182Z,10.70
2019-04-10T06:05:20.327Z,10.70
2019-04-10T06:07:50.251Z,10.70
2019-04-10T06:10:20.089Z,10.80
2019-04-10T06:12:50.765Z,10.80
2019-04-10T06:15:21.100Z,10.90
2019-04-10T06:17:51.100Z,10.80
2019-04-10T06:20:21.001Z,10.80
2019-04-10T06:22:50.766Z,10.80
2019-04-10T06:25:23.549Z,10.90
2019-04-10T06:27:52.696Z,10.90
2019-04-10T06:30:23.793Z,11.00
2019-04-10T06:32:53.975Z,11.00
2019-04-10T06:35:24.151Z,10.90
2019-04-10T06:37:54.715Z,10.90
2019-04-10T06:40:27.385Z,10.90
2019-04-10T06:42:58.301Z,10.90
2019-04-10T06:45:28.499Z,10.80
2019-04-10T06:47:58.513Z,10.70
2019-04-10T06:50:30.093Z,10.70
2019-04-10T06:53:00.381Z,10.70
2019-04-10T06:55:30.307Z,10.70
2019-04-10T06:58:00.865Z,10.70
2019-04-10T07:00:30.929Z,10.80
2019-04-10T07:03:01.416Z,10.70
2019-04-10T07:05:40.786Z,10.70
2019-04-10T07:08:12.186Z,10.80
2019-04-10T07:10:48.189Z,10.90
2019-04-10T07:13:10.355Z,10.90
2019-04-10T07:15:42.879Z,10.90
2019-04-10T07:18:14.247Z,11.00
2019-04-10T07:20:44.095Z,11.00
2019-04-10T07:23:18.277Z,11.10
2019-04-10T07:25:47.248Z,11.30
2019-04-10T07:28:17.470Z,11.40
2019-04-10T07:30:47.817Z,11.60
2019-04-10T07:33:19.654Z,11.70
2019-04-10T07:35:49.971Z,11.70
2019-04-10T07:38:21.341Z,11.80
2019-04-10T07:40:51.636Z,11.90
2019-04-10T07:43:24.505Z,12.00
2019-04-10T07:45:56.588Z,12.20
2019-04-10T07:48:25.118Z,12.30
2019-04-10T07:50:55.789Z,12.40
2019-04-10T07:53:26.717Z,12.60
2019-04-10T07:56:05.357Z,12.70
2019-04-10T07:58:29.073Z,12.80
2019-04-10T08:00:59.086Z,12.90
2019-04-10T08:03:28.975Z,13.00
2019-04-10T08:05:58.838Z,13.20
2019-04-10T08:08:29.815Z,13.30
2019-04-10T08:10:59.886Z,13.30
2019-04-10T08:13:30.814Z,13.30
2019-04-10T08:16:01.121Z,13.40
2019-04-10T08:18:31.715Z,13.50
2019-04-10T08:21:02.821Z,13.70
2019-04-10T08:23:33.768Z,13.80
2019-04-10T08:26:03.900Z,13.80
2019-04-10T08:28:34.865Z,13.70
2019-04-10T08:31:04.878Z,13.70
2019-04-10T08:33:35.227Z,13.80
2019-04-10T08:36:05.329Z,14.00
2019-04-10T08:38:35.327Z,14.10
2019-04-10T08:41:05.215Z,14.10
2019-04-10T08:43:35.167Z,14.10
2019-04-10T08:46:05.323Z,14.10
2019-04-10T08:48:35.213Z,14.00
2019-04-10T08:51:05.111Z,14.00
2019-04-10T08:53:34.854Z,13.90
2019-04-10T08:56:06.546Z,13.90
2019-04-10T08:58:36.710Z,13.90
2019-04-10T09:01:07.185Z,13.90
2019-04-10T09:03:37.187Z,13.90
2019-04-10T09:06:07.267Z,13.80
2019-04-10T09:08:37.268Z,13.70
2019-04-10T09:11:07.193Z,13.70
2019-04-10T09:13:37.130Z,13.60
2019-04-10T09:16:07.418Z,13.60
2019-04-10T09:18:37.355Z,13.50
2019-04-10T09:21:07.342Z,13.50
2019-04-10T09:23:45.396Z,13.50
2019-04-10T09:26:08.633Z,13.60
2019-04-10T09:28:38.505Z,13.70
2019-04-10T09:31:09.328Z,13.70
2019-04-10T09:33:39.146Z,13.70
2019-04-10T09:36:09.067Z,13.90
2019-04-10T09:38:39.075Z,14.00
2019-04-10T09:41:09.866Z,14.00
2019-04-10T09:43:40.093Z,14.10
2019-04-10T09:46:11.207Z,14.10
2019-04-10T09:48:42.073Z,14.10
2019-04-10T09:51:15.023Z,14.20
2019-04-10T09:53:43.845Z,14.10
2019-04-10T09:56:13.692Z,14.20
2019-04-10T09:58:44.711Z,14.20
2019-04-10T10:01:16.345Z,14.10
2019-04-10T10:03:46.565Z,14.10
2019-04-10T10:06:24.357Z,14.00
2019-04-10T10:08:48.031Z,13.90
2019-04-10T10:11:18.152Z,13.90
2019-04-10T10:13:48.250Z,13.80
2019-04-10T10:16:18.942Z,13.80
2019-04-10T10:18:49.855Z,13.70
2019-04-10T10:21:20.637Z,13.60
2019-04-10T10:23:50.585Z,13.60
2019-04-10T10:26:20.691Z,13.70
2019-04-10T10:28:50.638Z,13.60
2019-04-10T10:31:20.439Z,13.70
2019-04-10T10:33:50.261Z,13.70
2019-04-10T10:36:20.187Z,13.70
2019-04-10T10:39:02.108Z,13.70
2019-04-10T10:41:22.251Z,13.70
2019-04-10T10:43:52.994Z,13.70
2019-04-10T10:46:23.154Z,13.60
2019-04-10T10:48:53.824Z,13.60
2019-04-10T10:51:23.910Z,13.60
2019-04-10T10:53:54.682Z,13.60
2019-04-10T10:56:24.699Z,13.60
2019-04-10T10:58:57.439Z,13.70
2019-04-10T11:01:26.106Z,13.70
2019-04-10T11:03:56.359Z,13.80
2019-04-10T11:06:28.849Z,13.80
2019-04-10T11:08:59.391Z,13.80
2019-04-10T11:11:30.781Z,13.80
2019-04-10T11:14:01.255Z,13.90
2019-04-10T11:16:31.348Z,14.00
2019-04-10T11:19:02.411Z,14.10
2019-04-10T11:21:32.723Z,14.30
2019-04-10T11:24:03.059Z,14.60
2019-04-10T11:26:33.527Z,15.10
2019-04-10T11:29:03.748Z,15.60
2019-04-10T11:31:35.377Z,15.80
2019-04-10T11:34:07.594Z,16.00
2019-04-10T11:36:36.908Z,16.10
2019-04-10T11:39:16.752Z,16.40
2019-04-10T11:41:41.356Z,16.80
2019-04-10T11:44:13.374Z,17.40
2019-04-10T11:46:43.920Z,18.20
2019-04-10T11:49:15.451Z,18.80
2019-04-10T11:51:46.910Z,19.30
2019-04-10T11:54:18.030Z,19.60
2019-04-10T11:56:49.196Z,19.80
2019-04-10T11:59:23.037Z,19.70
2019-04-10T12:01:56.134Z,19.70
2019-04-10T12:04:23.353Z,19.70
2019-04-10T12:06:55.416Z,19.40
2019-04-10T12:10:18.530Z,19.20
2019-04-10T12:11:57.251Z,19.00
2019-04-10T12:14:27.872Z,18.80
2019-04-10T12:16:58.138Z,18.50
2019-04-10T12:19:29.058Z,18.30
2019-04-10T12:21:59.143Z,18.00
2019-04-10T12:24:29.876Z,17.90
2019-04-10T12:27:00.432Z,17.80
2019-04-10T12:29:30.856Z,17.70
2019-04-10T12:32:00.889Z,17.50
2019-04-10T12:34:32.030Z,17.20
2019-04-10T12:37:02.877Z,17.00
2019-04-10T12:39:32.946Z,17.00
2019-04-10T12:42:03.799Z,17.00
2019-04-10T12:44:33.808Z,17.10
2019-04-10T12:47:04.317Z,17.20
2019-04-10T12:49:34.045Z,17.40
2019-04-10T12:52:03.741Z,17.40
2019-04-10T12:54:33.566Z,17.40
2019-04-10T12:57:04.742Z,17.40
2019-04-10T12:59:35.326Z,17.50
2019-04-10T13:02:05.315Z,17.60
2019-04-10T13:04:35.102Z,17.70
2019-04-10T13:07:05.390Z,17.70
2019-04-10T13:09:35.915Z,17.70
2019-04-10T13:12:06.945Z,17.70
2019-04-10T13:14:37.133Z,17.70
2019-04-10T13:17:06.886Z,17.70
2019-04-10T13:19:37.487Z,17.60
2019-04-10T13:22:07.603Z,17.60
2019-04-10T13:24:37.570Z,17.40
2019-04-10T13:27:07.442Z,17.10
2019-04-10T13:29:38.414Z,16.90
2019-04-10T13:32:09.717Z,16.60
2019-04-10T13:34:39.708Z,16.40
2019-04-10T13:37:10.229Z,16.30
2019-04-10T13:39:41.151Z,16.10
2019-04-10T13:42:12.672Z,15.90
2019-04-10T13:44:42.615Z,15.80
2019-04-10T13:47:13.299Z,15.70
2019-04-10T13:49:44.225Z,15.60
2019-04-10T13:52:14.455Z,15.60
2019-04-10T13:54:45.287Z,15.50
2019-04-10T13:57:15.326Z,15.50
2019-04-10T13:59:45.239Z,15.50
2019-04-10T14:02:21.967Z,15.40
2019-04-10T14:04:51.984Z,15.30
2019-04-10T14:07:22.170Z,15.20
2019-04-10T14:09:52.476Z,15.20
2019-04-10T14:12:22.955Z,15.10
2019-04-10T14:14:53.096Z,15.00
2019-04-10T14:17:23.751Z,14.90
2019-04-10T14:19:54.138Z,14.80
2019-04-10T14:22:24.224Z,14.70
2019-04-10T14:24:54.079Z,14.60
2019-04-10T14:27:25.968Z,14.50
2019-04-10T14:29:56.681Z,14.60
2019-04-10T14:32:45.243Z,14.50
2019-04-10T14:35:15.044Z,14.50
2019-04-10T14:37:45.438Z,14.30
2019-04-10T14:40:16.067Z,14.20
2019-04-10T14:42:45.916Z,14.10
2019-04-10T14:45:15.853Z,14.00
2019-04-10T14:47:45.745Z,13.90
2019-04-10T14:50:15.746Z,13.80
2019-04-10T14:52:45.636Z,13.80
2019-04-10T14:55:16.494Z,13.70
2019-04-10T14:57:47.408Z,13.70
2019-04-10T15:00:31.223Z,13.80
2019-04-10T15:03:02.140Z,13.90
2019-04-10T15:05:33.208Z,13.90
2019-04-10T15:08:03.688Z,13.80
2019-04-10T15:10:33.523Z,13.70
2019-04-10T15:13:11.279Z,13.70
2019-04-10T15:15:35.120Z,13.60
2019-04-10T15:18:04.927Z,13.60
2019-04-10T15:20:35.601Z,13.60
2019-04-10T15:23:05.883Z,13.50
2019-04-10T15:25:35.758Z,13.60
2019-04-10T15:28:08.477Z,13.50
2019-04-10T15:30:39.010Z,13.50
2019-04-10T15:33:10.093Z,13.40
2019-04-10T15:35:39.995Z,13.40
2019-04-10T15:38:09.806Z,13.30
2019-04-10T15:40:39.591Z,13.30
2019-04-10T15:43:10.632Z,13.20
2019-04-10T15:45:41.016Z,13.10
2019-04-10T15:48:10.900Z,13.10
2019-04-10T15:50:41.453Z,13.00
2019-04-10T15:53:11.760Z,12.90
2019-04-10T15:55:41.548Z,12.80
2019-04-10T15:58:11.332Z,12.70
2019-04-10T16:00:41.378Z,12.70
2019-04-10T16:03:11.461Z,12.70
2019-04-10T16:05:41.874Z,12.70
2019-04-10T16:08:12.770Z,12.50
2019-04-10T16:11:07.649Z,12.50
2019-04-10T16:13:40.867Z,12.40
2019-04-10T16:16:29.925Z,12.30
2019-04-10T16:19:12.171Z,12.30
2019-04-10T16:21:42.087Z,12.30
2019-04-10T16:24:12.305Z,12.40
2019-04-10T16:26:43.279Z,12.40
2019-04-10T16:29:13.199Z,12.40
2019-04-10T16:31:44.019Z,12.40
2019-04-10T16:34:14.226Z,12.30
2019-04-10T16:36:44.029Z,12.40
2019-04-10T16:39:15.847Z,12.40
2019-04-10T16:41:46.218Z,12.40
2019-04-10T16:44:17.107Z,12.40
2019-04-10T16:46:49.448Z,12.40
2019-04-10T16:49:18.802Z,12.50
2019-04-10T16:51:48.944Z,12.40
2019-04-10T16:54:20.152Z,12.30
2019-04-10T16:56:50.443Z,12.30
2019-04-10T16:59:21.320Z,12.20
2019-04-10T17:01:51.423Z,12.10
2019-04-10T17:04:21.231Z,12.10
2019-04-10T17:06:51.069Z,12.10
2019-04-10T17:09:23.108Z,12.10
2019-04-10T17:11:53.745Z,12.00
2019-04-10T17:14:23.964Z,12.00
2019-04-10T17:16:53.939Z,12.00
2019-04-10T17:19:23.797Z,12.00
2019-04-10T17:21:54.887Z,12.00
2019-04-10T17:24:25.062Z,12.00
2019-04-10T17:26:55.207Z,12.10
2019-04-10T17:29:25.159Z,12.10
2019-04-10T17:31:55.151Z,12.10
2019-04-10T17:34:25.018Z,12.10
2019-04-10T17:36:54.887Z,12.10
2019-04-10T17:39:25.162Z,12.00
2019-04-10T17:41:55.787Z,12.00
2019-04-10T17:44:25.902Z,12.00
2019-04-10T17:46:57.997Z,11.90
2019-04-10T17:49:27.820Z,11.90
2019-04-10T17:51:59.883Z,11.80
2019-04-10T17:54:29.853Z,11.80
2019-04-10T17:57:05.881Z,11.70
2019-04-10T17:59:35.844Z,11.80
2019-04-10T18:02:11.810Z,11.70
2019-04-10T18:04:44.732Z,11.70
2019-04-10T18:07:16.286Z,11.60
2019-04-10T18:09:46.439Z,11.50
2019-04-10T18:12:19.588Z,11.40
2019-04-10T18:14:51.404Z,11.30
2019-04-10T18:17:22.689Z,11.30
2019-04-10T18:19:53.005Z,11.20
2019-04-10T18:22:22.780Z,11.10
2019-04-10T18:24:53.670Z,11.10
2019-04-10T18:27:24.469Z,11.10
2019-04-10T18:29:55.203Z,11.10
2019-04-10T18:32:27.562Z,11.10
2019-04-10T18:34:59.030Z,11.10
2019-04-10T18:37:33.124Z,11.00
2019-04-10T18:40:05.296Z,11.00
2019-04-10T18:42:36.927Z,11.10
2019-04-10T18:45:09.171Z,11.00
2019-04-10T18:47:40.295Z,11.00
2019-04-10T18:50:12.042Z,11.00
2019-04-10T18:52:42.124Z,11.00
2019-04-10T18:55:12.214Z,11.00
2019-04-10T18:57:43.110Z,11.00
2019-04-10T19:00:32.353Z,11.00
2019-04-10T19:03:45.420Z,11.00
2019-04-10T19:06:10.038Z,11.00
2019-04-10T19:08:40.495Z,11.00
2019-04-10T19:11:19.158Z,11.00
2019-04-10T19:13:42.458Z,11.00
2019-04-10T19:16:12.969Z,11.00
2019-04-10T19:18:43.803Z,11.00
2019-04-10T19:21:13.841Z,11.00
2019-04-10T19:23:43.667Z,11.00
2019-04-10T19:26:15.498Z,11.00
2019-04-10T19:28:46.577Z,11.00
2019-04-10T19:31:20.116Z,11.00
2019-04-10T19:33:49.108Z,11.00
2019-04-10T19:36:19.470Z,11.10
2019-04-10T19:38:49.708Z,11.10
2019-04-10T19:41:25.166Z,11.10
2019-04-10T19:43:54.839Z,11.20
2019-04-10T19:46:25.907Z,11.20
2019-04-10T19:48:57.559Z,11.20
2019-04-10T19:51:27.965Z,11.20
2019-04-10T19:54:00.609Z,11.20
2019-04-10T19:56:29.314Z,11.20
2019-04-10T19:58:59.162Z,11.20
2019-04-10T20:01:31.241Z,11.10
2019-04-10T20:04:01.917Z,11.10
2019-04-10T20:06:36.264Z,11.10
2019-04-10T20:09:08.898Z,11.10
2019-04-10T20:11:46.651Z,11.10
2019-04-10T20:14:16.780Z,11.10
2019-04-10T20:16:49.375Z,11.00
2019-04-10T20:19:18.516Z,11.00
2019-04-10T20:21:53.111Z,11.00
2019-04-10T20:24:22.962Z,11.00
2019-04-10T20:26:53.844Z,11.00
2019-04-10T20:29:23.731Z,11.00
2019-04-10T20:32:03.886Z,11.00
2019-04-10T20:34:36.525Z,11.00
2019-04-10T20:37:11.325Z,11.00
2019-04-10T20:39:41.592Z,11.00
2019-04-10T20:42:14.098Z,11.00
2019-04-10T20:44:44.936Z,11.00
2019-04-10T20:47:15.829Z,11.00
2019-04-10T20:49:48.679Z,10.90
2019-04-10T20:52:18.546Z,10.90
2019-04-10T20:54:48.951Z,10.80
2019-04-10T20:57:21.468Z,10.80
2019-04-10T20:59:53.263Z,10.70
2019-04-10T21:02:24.326Z,10.60
2019-04-10T21:05:01.471Z,10.60
2019-04-10T21:07:27.600Z,10.60
2019-04-10T21:09:58.743Z,10.60
2019-04-10T21:12:30.040Z,10.60
2019-04-10T21:15:01.264Z,10.60
2019-04-10T21:17:32.749Z,10.70
2019-04-10T21:20:05.666Z,10.60
2019-04-10T21:22:38.617Z,10.60
2019-04-10T21:25:10.282Z,10.50
2019-04-10T21:27:40.173Z,10.50
2019-04-10T21:30:28.663Z,10.40
2019-04-10T21:33:12.067Z,10.40
2019-04-10T21:35:44.410Z,10.40
2019-04-10T21:38:17.266Z,10.40
2019-04-10T21:40:49.855Z,10.40
2019-04-10T21:43:21.365Z,10.30
2019-04-10T21:45:55.296Z,10.20
2019-04-10T21:48:28.037Z,10.10
2019-04-10T21:51:00.499Z,10.00
2019-04-10T21:53:31.724Z,9.90
2019-04-10T21:56:04.027Z,9.80
2019-04-10T21:58:34.550Z,9.70
2019-04-10T22:01:11.072Z,9.70
2019-04-10T22:03:43.570Z,9.60
2019-04-10T22:06:30.901Z,9.50
2019-04-10T22:09:20.829Z,9.50
2019-04-10T22:11:55.677Z,9.40
2019-04-10T22:14:28.276Z,9.30
2019-04-10T22:16:58.248Z,9.30
2019-04-10T22:19:30.429Z,9.30
2019-04-10T22:22:00.028Z,9.20
2019-04-10T22:24:30.260Z,9.20
2019-04-10T22:27:00.879Z,9.10
2019-04-10T22:29:30.979Z,9.10
2019-04-10T22:32:02.091Z,9.00
2019-04-10T22:34:36.370Z,9.00
2019-04-10T22:37:08.130Z,9.00
2019-04-10T22:39:40.011Z,8.90
2019-04-10T22:42:11.525Z,8.90
2019-04-10T22:44:45.172Z,8.90
2019-04-10T22:47:16.952Z,8.90
2019-04-10T22:49:48.231Z,8.90
2019-04-10T22:52:19.585Z,8.90
2019-04-10T22:54:53.899Z,9.00
2019-04-10T22:57:25.180Z,8.90
2019-04-10T22:59:57.491Z,8.80
2019-04-10T23:02:27.857Z,8.80
2019-04-10T23:05:00.557Z,8.80
2019-04-10T23:07:33.638Z,8.80
2019-04-10T23:10:15.583Z,8.70
2019-04-10T23:12:57.123Z,8.70
2019-04-10T23:15:23.094Z,8.70
2019-04-10T23:17:55.475Z,8.60
2019-04-10T23:20:28.547Z,8.60
2019-04-10T23:23:04.533Z,8.60
2019-04-10T23:25:36.555Z,8.60
2019-04-10T23:28:07.568Z,8.60
2019-04-10T23:30:39.237Z,8.70
2019-04-10T23:33:12.195Z,8.70
2019-04-10T23:35:43.320Z,8.70
2019-04-10T23:38:13.469Z,8.70
2019-04-10T23:40:49.687Z,8.70
2019-04-10T23:43:22.741Z,8.70
2019-04-10T23:45:55.702Z,8.80
2019-04-10T23:48:25.724Z,8.80
2019-04-10T23:50:56.606Z,8.70
2019-04-10T23:53:28.774Z,8.70
2019-04-10T23:56:02.132Z,8.70
2019-04-10T23:58:32.076Z,8.70
